sensor_id;sensor_type;location;lat;lon;timestamp;pressure;altitude;pressure_sealevel;temperature;humidity
57859;BME280;49153;45.568;11.894;2022-07-29T00:00:12;101242.41;;;25.55;58.40
57859;BME280;49153;45.568;11.894;2022-07-29T00:02:50;101219.09;;;25.33;58.55
57859;BME280;49153;45.568;11.894;2022-07-29T00:05:47;101226.84;;;25.36;58.76
57859;BME280;49153;45.568;11.894;2022-07-29T00:08:35;101233.53;;;25.40;57.07
57859;BME280;49153;45.568;11.894;2022-07-29T00:11:06;101237.66;;;25.36;55.85
57859;BME280;49153;45.568;11.894;2022-07-29T00:13:35;101201.63;;;25.08;55.46
57859;BME280;49153;45.568;11.894;2022-07-29T00:16:04;101218.34;;;25.18;54.94
57859;BME280;49153;45.568;11.894;2022-07-29T00:18:42;101225.66;;;25.03;55.09
57859;BME280;49153;45.568;11.894;2022-07-29T00:21:23;101210.97;;;24.91;55.19
57859;BME280;49153;45.568;11.894;2022-07-29T00:24:01;101185.69;;;24.77;55.30
57859;BME280;49153;45.568;11.894;2022-07-29T00:26:35;101197.50;;;24.76;55.94
57859;BME280;49153;45.568;11.894;2022-07-29T00:29:06;101168.25;;;24.58;56.17
57859;BME280;49153;45.568;11.894;2022-07-29T00:31:37;101162.41;;;24.40;56.53
57859;BME280;49153;45.568;11.894;2022-07-29T00:34:05;101148.13;;;24.25;57.07
57859;BME280;49153;45.568;11.894;2022-07-29T00:36:55;101124.97;;;24.16;57.70
57859;BME280;49153;45.568;11.894;2022-07-29T00:39:29;101106.91;;;24.02;57.65
57859;BME280;49153;45.568;11.894;2022-07-29T00:41:56;101142.72;;;24.10;60.24
57859;BME280;49153;45.568;11.894;2022-07-29T00:44:21;101115.13;;;23.79;60.38
57859;BME280;49153;45.568;11.894;2022-07-29T00:46:47;101121.81;;;23.68;61.06
57859;BME280;49153;45.568;11.894;2022-07-29T00:49:12;101096.94;;;23.43;61.66
57859;BME280;49153;45.568;11.894;2022-07-29T00:51:38;101092.38;;;23.44;61.77
57859;BME280;49153;45.568;11.894;2022-07-29T00:54:05;101087.69;;;23.46;61.80
57859;BME280;49153;45.568;11.894;2022-07-29T00:56:31;101103.41;;;23.57;61.99
57859;BME280;49153;45.568;11.894;2022-07-29T00:58:58;101084.31;;;23.44;61.72
57859;BME280;49153;45.568;11.894;2022-07-29T01:01:23;101087.00;;;23.44;61.91
57859;BME280;49153;45.568;11.894;2022-07-29T01:03:49;101116.22;;;23.55;62.11
57859;BME280;49153;45.568;11.894;2022-07-29T01:06:18;101080.41;;;23.32;61.94
57859;BME280;49153;45.568;11.894;2022-07-29T01:08:45;101073.25;;;23.39;62.91
57859;BME280;49153;45.568;11.894;2022-07-29T01:11:12;101055.81;;;23.35;63.35
57859;BME280;49153;45.568;11.894;2022-07-29T01:13:39;101058.50;;;23.35;63.91
57859;BME280;49153;45.568;11.894;2022-07-29T01:16:13;101075.09;;;23.38;63.98
57859;BME280;49153;45.568;11.894;2022-07-29T01:18:44;101082.59;;;23.51;64.20
57859;BME280;49153;45.568;11.894;2022-07-29T01:21:40;101058.22;;;23.44;63.84
57859;BME280;49153;45.568;11.894;2022-07-29T01:24:27;101047.06;;;23.33;64.16
57859;BME280;49153;45.568;11.894;2022-07-29T01:27:26;101044.66;;;23.38;64.82
57859;BME280;49153;45.568;11.894;2022-07-29T01:30:01;101037.63;;;23.37;65.11
57859;BME280;49153;45.568;11.894;2022-07-29T01:32:33;101029.16;;;23.40;64.99
57859;BME280;49153;45.568;11.894;2022-07-29T01:35:19;101040.34;;;23.51;65.51
57859;BME280;49153;45.568;11.894;2022-07-29T01:40:54;101035.50;;;23.47;65.40
57859;BME280;49153;45.568;11.894;2022-07-29T01:43:59;101038.69;;;23.42;66.03
57859;BME280;49153;45.568;11.894;2022-07-29T01:46:44;101032.22;;;23.37;65.09
57859;BME280;49153;45.568;11.894;2022-07-29T01:49:52;101080.06;;;23.49;65.19
57859;BME280;49153;45.568;11.894;2022-07-29T01:52:49;101050.47;;;23.27;65.13
57859;BME280;49153;45.568;11.894;2022-07-29T01:55:49;101060.44;;;23.26;65.59
57859;BME280;49153;45.568;11.894;2022-07-29T01:58:55;101069.16;;;23.28;65.06
57859;BME280;49153;45.568;11.894;2022-07-29T02:01:28;101060.34;;;23.20;65.45
57859;BME280;49153;45.568;11.894;2022-07-29T02:04:10;101078.44;;;23.26;65.32
57859;BME280;49153;45.568;11.894;2022-07-29T02:07:42;101068.75;;;23.16;65.13
57859;BME280;49153;45.568;11.894;2022-07-29T02:10:50;101062.72;;;23.00;66.20
57859;BME280;49153;45.568;11.894;2022-07-29T02:13:23;101082.31;;;23.08;66.01
57859;BME280;49153;45.568;11.894;2022-07-29T02:16:29;101083.56;;;22.98;66.56
57859;BME280;49153;45.568;11.894;2022-07-29T02:19:22;101070.66;;;22.93;66.65
57859;BME280;49153;45.568;11.894;2022-07-29T02:22:24;101063.16;;;22.89;66.62
57859;BME280;49153;45.568;11.894;2022-07-29T02:25:26;101069.03;;;22.84;66.23
57859;BME280;49153;45.568;11.894;2022-07-29T02:28:33;101102.13;;;22.93;66.50
57859;BME280;49153;45.568;11.894;2022-07-29T02:31:08;101081.38;;;22.79;66.76
57859;BME280;49153;45.568;11.894;2022-07-29T02:33:56;101097.16;;;22.82;66.62
57859;BME280;49153;45.568;11.894;2022-07-29T02:36:48;101091.84;;;22.73;66.69
57859;BME280;49153;45.568;11.894;2022-07-29T02:39:45;101100.38;;;22.77;66.37
57859;BME280;49153;45.568;11.894;2022-07-29T02:42:42;101058.16;;;22.55;66.77
57859;BME280;49153;45.568;11.894;2022-07-29T02:45:10;101100.72;;;22.74;66.72
57859;BME280;49153;45.568;11.894;2022-07-29T02:50:29;101098.03;;;22.74;66.48
57859;BME280;49153;45.568;11.894;2022-07-29T02:53:22;101080.25;;;22.65;66.55
57859;BME280;49153;45.568;11.894;2022-07-29T02:56:13;101086.00;;;22.62;66.57
57859;BME280;49153;45.568;11.894;2022-07-29T02:58:54;101067.59;;;22.51;66.21
57859;BME280;49153;45.568;11.894;2022-07-29T03:01:34;101069.28;;;22.52;66.37
57859;BME280;49153;45.568;11.894;2022-07-29T03:04:24;101062.38;;;22.49;66.19
57859;BME280;49153;45.568;11.894;2022-07-29T03:10:44;101079.66;;;22.55;65.73
57859;BME280;49153;45.568;11.894;2022-07-29T03:13:43;101078.34;;;22.51;65.63
57859;BME280;49153;45.568;11.894;2022-07-29T03:16:32;101066.28;;;22.47;66.31
57859;BME280;49153;45.568;11.894;2022-07-29T03:21:57;101105.13;;;22.67;66.48
57859;BME280;49153;45.568;11.894;2022-07-29T03:24:48;101102.78;;;22.64;66.13
57859;BME280;49153;45.568;11.894;2022-07-29T03:27:19;101075.84;;;22.49;66.01
57859;BME280;49153;45.568;11.894;2022-07-29T03:30:42;101098.97;;;22.58;66.22
57859;BME280;49153;45.568;11.894;2022-07-29T03:34:18;101108.22;;;22.56;66.21
57859;BME280;49153;45.568;11.894;2022-07-29T03:37:23;101080.13;;;22.36;66.22
57859;BME280;49153;45.568;11.894;2022-07-29T03:43:32;101102.38;;;22.52;66.35
57859;BME280;49153;45.568;11.894;2022-07-29T03:46:27;101103.88;;;22.55;66.25
57859;BME280;49153;45.568;11.894;2022-07-29T03:49:41;101100.56;;;22.45;66.29
57859;BME280;49153;45.568;11.894;2022-07-29T03:52:40;101084.38;;;22.30;66.69
57859;BME280;49153;45.568;11.894;2022-07-29T03:56:03;101096.97;;;22.29;66.63
57859;BME280;49153;45.568;11.894;2022-07-29T03:58:58;101095.28;;;22.28;67.11
57859;BME280;49153;45.568;11.894;2022-07-29T04:01:55;101099.81;;;22.28;66.87
57859;BME280;49153;45.568;11.894;2022-07-29T04:04:28;101078.25;;;22.05;67.14
57859;BME280;49153;45.568;11.894;2022-07-29T04:06:58;101080.47;;;22.02;67.28
57859;BME280;49153;45.568;11.894;2022-07-29T04:09:35;101099.75;;;22.05;67.39
57859;BME280;49153;45.568;11.894;2022-07-29T04:12:14;101082.66;;;21.98;67.39
57859;BME280;49153;45.568;11.894;2022-07-29T04:14:48;101107.44;;;22.16;67.92
57859;BME280;49153;45.568;11.894;2022-07-29T04:17:22;101100.75;;;22.12;67.62
57859;BME280;49153;45.568;11.894;2022-07-29T04:20:10;101116.31;;;22.25;67.85
57859;BME280;49153;45.568;11.894;2022-07-29T04:25:25;101095.84;;;22.16;67.35
57859;BME280;49153;45.568;11.894;2022-07-29T04:28:34;101117.31;;;22.24;67.81
57859;BME280;49153;45.568;11.894;2022-07-29T04:31:52;101130.22;;;22.28;68.30
57859;BME280;49153;45.568;11.894;2022-07-29T04:34:37;101122.16;;;22.28;68.35
57859;BME280;49153;45.568;11.894;2022-07-29T04:37:10;101134.38;;;22.39;68.20
57859;BME280;49153;45.568;11.894;2022-07-29T04:39:58;101128.00;;;22.40;68.02
57859;BME280;49153;45.568;11.894;2022-07-29T04:42:56;101104.97;;;22.38;68.17
57859;BME280;49153;45.568;11.894;2022-07-29T04:45:26;101090.56;;;22.30;67.98
57859;BME280;49153;45.568;11.894;2022-07-29T04:48:12;101125.38;;;22.55;67.80
57859;BME280;49153;45.568;11.894;2022-07-29T04:51:01;101118.00;;;22.49;68.32
57859;BME280;49153;45.568;11.894;2022-07-29T04:54:17;101103.28;;;22.37;68.38
57859;BME280;49153;45.568;11.894;2022-07-29T05:00:20;101119.09;;;22.40;68.35
57859;BME280;49153;45.568;11.894;2022-07-29T05:06:30;101120.75;;;22.41;68.13
57859;BME280;49153;45.568;11.894;2022-07-29T05:09:06;101108.63;;;22.45;68.25
57859;BME280;49153;45.568;11.894;2022-07-29T05:11:45;101138.25;;;22.67;68.48
57859;BME280;49153;45.568;11.894;2022-07-29T05:14:24;101147.97;;;22.77;68.38
57859;BME280;49153;45.568;11.894;2022-07-29T05:16:57;101134.22;;;22.71;68.52
57859;BME280;49153;45.568;11.894;2022-07-29T05:19:32;101144.75;;;22.81;68.29
57859;BME280;49153;45.568;11.894;2022-07-29T05:21:58;101134.66;;;22.83;68.89
57859;BME280;49153;45.568;11.894;2022-07-29T05:24:25;101132.91;;;22.90;68.89
57859;BME280;49153;45.568;11.894;2022-07-29T05:27:14;101141.69;;;23.07;68.35
57859;BME280;49153;45.568;11.894;2022-07-29T05:30:05;101158.38;;;23.25;68.36
57859;BME280;49153;45.568;11.894;2022-07-29T05:32:36;101143.63;;;23.21;68.29
57859;BME280;49153;45.568;11.894;2022-07-29T05:35:05;101164.97;;;23.45;68.19
57859;BME280;49153;45.568;11.894;2022-07-29T05:37:32;101170.25;;;23.53;68.05
57859;BME280;49153;45.568;11.894;2022-07-29T05:39:59;101150.78;;;23.51;67.59
57859;BME280;49153;45.568;11.894;2022-07-29T05:42:34;101151.81;;;23.65;67.69
57859;BME280;49153;45.568;11.894;2022-07-29T05:45:20;101163.41;;;23.80;67.48
57859;BME280;49153;45.568;11.894;2022-07-29T05:48:05;101158.13;;;23.87;67.45
57859;BME280;49153;45.568;11.894;2022-07-29T05:51:00;101152.19;;;23.91;67.11
57859;BME280;49153;45.568;11.894;2022-07-29T05:53:26;101183.09;;;24.18;66.88
57859;BME280;49153;45.568;11.894;2022-07-29T05:55:56;101184.03;;;24.25;66.77
57859;BME280;49153;45.568;11.894;2022-07-29T05:58:23;101156.97;;;24.19;66.62
57859;BME280;49153;45.568;11.894;2022-07-29T06:00:52;101181.97;;;24.42;65.96
57859;BME280;49153;45.568;11.894;2022-07-29T06:03:24;101182.69;;;24.51;65.77
57859;BME280;49153;45.568;11.894;2022-07-29T06:05:51;101169.38;;;24.49;65.69
57859;BME280;49153;45.568;11.894;2022-07-29T06:08:19;101162.28;;;24.48;65.67
57859;BME280;49153;45.568;11.894;2022-07-29T06:10:45;101168.88;;;24.60;65.46
57859;BME280;49153;45.568;11.894;2022-07-29T06:13:12;101174.63;;;24.72;64.51
57859;BME280;49153;45.568;11.894;2022-07-29T06:15:43;101161.78;;;24.74;64.56
57859;BME280;49153;45.568;11.894;2022-07-29T06:18:15;101191.13;;;24.98;64.32
57859;BME280;49153;45.568;11.894;2022-07-29T06:20:49;101199.09;;;25.06;64.22
57859;BME280;49153;45.568;11.894;2022-07-29T06:26:32;101160.09;;;25.09;63.86
57859;BME280;49153;45.568;11.894;2022-07-29T06:29:05;101185.47;;;25.36;63.59
57859;BME280;49153;45.568;11.894;2022-07-29T06:31:57;101171.38;;;25.40;63.33
57859;BME280;49153;45.568;11.894;2022-07-29T06:35:16;101198.00;;;25.64;62.59
57859;BME280;49153;45.568;11.894;2022-07-29T06:41:05;101179.84;;;25.86;61.92
57859;BME280;49153;45.568;11.894;2022-07-29T06:43:44;101195.59;;;26.04;61.22
57859;BME280;49153;45.568;11.894;2022-07-29T06:46:34;101180.38;;;26.03;61.02
57859;BME280;49153;45.568;11.894;2022-07-29T06:49:24;101168.97;;;26.07;60.33
57859;BME280;49153;45.568;11.894;2022-07-29T06:52:58;101176.78;;;26.24;59.65
57859;BME280;49153;45.568;11.894;2022-07-29T06:55:50;101186.03;;;26.42;59.81
57859;BME280;49153;45.568;11.894;2022-07-29T06:59:03;101183.00;;;26.59;60.02
57859;BME280;49153;45.568;11.894;2022-07-29T07:01:53;101199.09;;;26.86;59.51
57859;BME280;49153;45.568;11.894;2022-07-29T07:05:11;101191.69;;;27.02;59.01
57859;BME280;49153;45.568;11.894;2022-07-29T07:08:02;101172.94;;;27.07;58.85
57859;BME280;49153;45.568;11.894;2022-07-29T07:10:59;101202.97;;;27.31;58.92
57859;BME280;49153;45.568;11.894;2022-07-29T07:13:49;101192.16;;;27.38;57.19
57859;BME280;49153;45.568;11.894;2022-07-29T07:16:15;101195.06;;;27.50;57.56
57859;BME280;49153;45.568;11.894;2022-07-29T07:19:23;101188.00;;;27.62;56.74
57859;BME280;49153;45.568;11.894;2022-07-29T07:21:55;101200.91;;;27.73;57.45
57859;BME280;49153;45.568;11.894;2022-07-29T07:25:04;101186.09;;;27.89;55.90
57859;BME280;49153;45.568;11.894;2022-07-29T07:27:40;101180.44;;;27.97;55.71
57859;BME280;49153;45.568;11.894;2022-07-29T07:30:13;101167.69;;;27.97;55.35
57859;BME280;49153;45.568;11.894;2022-07-29T07:32:57;101173.31;;;28.09;55.19
57859;BME280;49153;45.568;11.894;2022-07-29T07:35:45;101180.81;;;28.27;54.77
57859;BME280;49153;45.568;11.894;2022-07-29T07:38:22;101181.19;;;28.37;54.20
57859;BME280;49153;45.568;11.894;2022-07-29T07:41:11;101180.13;;;28.44;53.60
57859;BME280;49153;45.568;11.894;2022-07-29T07:44:01;101180.91;;;28.51;53.00
57859;BME280;49153;45.568;11.894;2022-07-29T07:46:51;101164.78;;;28.56;53.00
57859;BME280;49153;45.568;11.894;2022-07-29T07:50:04;101169.94;;;28.78;52.10
57859;BME280;49153;45.568;11.894;2022-07-29T07:52:46;101185.22;;;29.04;51.65
57859;BME280;49153;45.568;11.894;2022-07-29T07:55:33;101181.22;;;29.13;50.89
57859;BME280;49153;45.568;11.894;2022-07-29T07:58:25;101155.31;;;29.10;50.64
57859;BME280;49153;45.568;11.894;2022-07-29T08:01:05;101184.44;;;29.34;50.70
57859;BME280;49153;45.568;11.894;2022-07-29T08:03:54;101177.25;;;29.40;48.52
57859;BME280;49153;45.568;11.894;2022-07-29T08:07:02;101174.47;;;29.47;45.57
57859;BME280;49153;45.568;11.894;2022-07-29T08:09:29;101187.56;;;29.56;47.26
57859;BME280;49153;45.568;11.894;2022-07-29T08:11:55;101201.50;;;29.66;47.34
57859;BME280;49153;45.568;11.894;2022-07-29T08:14:20;101195.84;;;29.68;45.56
57859;BME280;49153;45.568;11.894;2022-07-29T08:16:46;101195.31;;;29.59;44.86
57859;BME280;49153;45.568;11.894;2022-07-29T08:19:11;101206.34;;;29.64;44.19
57859;BME280;49153;45.568;11.894;2022-07-29T08:21:37;101199.69;;;29.60;44.69
57859;BME280;49153;45.568;11.894;2022-07-29T08:24:03;101206.22;;;29.77;46.03
57859;BME280;49153;45.568;11.894;2022-07-29T08:26:47;101201.84;;;30.01;47.01
57859;BME280;49153;45.568;11.894;2022-07-29T08:29:13;101201.59;;;30.21;46.50
57859;BME280;49153;45.568;11.894;2022-07-29T08:31:40;101199.19;;;30.31;45.64
57859;BME280;49153;45.568;11.894;2022-07-29T08:34:06;101197.38;;;30.43;44.97
57859;BME280;49153;45.568;11.894;2022-07-29T08:36:32;101201.41;;;30.59;44.43
57859;BME280;49153;45.568;11.894;2022-07-29T08:38:59;101193.91;;;30.54;43.82
57859;BME280;49153;45.568;11.894;2022-07-29T08:41:25;101208.38;;;30.55;44.88
57859;BME280;49153;45.568;11.894;2022-07-29T08:43:50;101196.16;;;30.57;45.08
57859;BME280;49153;45.568;11.894;2022-07-29T08:46:17;101201.19;;;30.60;44.71
57859;BME280;49153;45.568;11.894;2022-07-29T08:48:43;101183.09;;;30.66;45.38
57859;BME280;49153;45.568;11.894;2022-07-29T08:51:13;101185.31;;;30.87;45.40
57859;BME280;49153;45.568;11.894;2022-07-29T08:53:41;101185.38;;;31.11;44.62
57859;BME280;49153;45.568;11.894;2022-07-29T08:56:07;101179.97;;;31.22;44.67
57859;BME280;49153;45.568;11.894;2022-07-29T08:58:36;101182.22;;;31.25;44.27
57859;BME280;49153;45.568;11.894;2022-07-29T09:01:02;101181.28;;;31.31;43.43
57859;BME280;49153;45.568;11.894;2022-07-29T09:03:31;101179.59;;;31.30;42.34
57859;BME280;49153;45.568;11.894;2022-07-29T09:05:59;101181.53;;;31.41;43.86
57859;BME280;49153;45.568;11.894;2022-07-29T09:08:24;101168.84;;;31.47;43.63
57859;BME280;49153;45.568;11.894;2022-07-29T09:10:50;101189.53;;;31.66;42.94
57859;BME280;49153;45.568;11.894;2022-07-29T09:13:16;101185.63;;;31.74;41.20
57859;BME280;49153;45.568;11.894;2022-07-29T09:15:43;101180.03;;;31.69;40.78
57859;BME280;49153;45.568;11.894;2022-07-29T09:18:09;101176.84;;;31.72;40.67
57859;BME280;49153;45.568;11.894;2022-07-29T09:20:34;101179.91;;;31.64;40.43
57859;BME280;49153;45.568;11.894;2022-07-29T09:23:18;101170.66;;;31.65;40.89
57859;BME280;49153;45.568;11.894;2022-07-29T09:25:44;101163.31;;;31.65;39.71
57859;BME280;49153;45.568;11.894;2022-07-29T09:28:11;101166.88;;;31.66;39.54
57859;BME280;49153;45.568;11.894;2022-07-29T09:30:54;101169.50;;;31.61;39.64
57859;BME280;49153;45.568;11.894;2022-07-29T09:33:21;101176.63;;;31.62;40.66
57859;BME280;49153;45.568;11.894;2022-07-29T09:36:05;101168.50;;;31.55;40.84
57859;BME280;49153;45.568;11.894;2022-07-29T09:38:32;101162.00;;;31.56;40.68
57859;BME280;49153;45.568;11.894;2022-07-29T09:41:02;101165.56;;;31.68;40.88
57859;BME280;49153;45.568;11.894;2022-07-29T09:43:28;101169.97;;;31.81;41.68
57859;BME280;49153;45.568;11.894;2022-07-29T09:45:53;101173.16;;;31.90;41.07
57859;BME280;49153;45.568;11.894;2022-07-29T09:48:22;101156.53;;;31.79;40.94
57859;BME280;49153;45.568;11.894;2022-07-29T09:50:48;101171.25;;;31.90;40.39
57859;BME280;49153;45.568;11.894;2022-07-29T09:53:36;101171.47;;;31.88;40.25
57859;BME280;49153;45.568;11.894;2022-07-29T09:56:05;101165.78;;;31.90;41.25
57859;BME280;49153;45.568;11.894;2022-07-29T09:58:31;101155.94;;;31.89;39.16
57859;BME280;49153;45.568;11.894;2022-07-29T10:01:00;101155.19;;;32.05;41.41
57859;BME280;49153;45.568;11.894;2022-07-29T10:03:26;101156.16;;;32.22;41.15
57859;BME280;49153;45.568;11.894;2022-07-29T10:06:13;101134.28;;;32.34;40.74
57859;BME280;49153;45.568;11.894;2022-07-29T10:09:28;101152.59;;;32.62;40.48
57859;BME280;49153;45.568;11.894;2022-07-29T10:12:32;101148.25;;;32.78;39.63
57859;BME280;49153;45.568;11.894;2022-07-29T10:15:24;101133.34;;;32.85;39.94
57859;BME280;49153;45.568;11.894;2022-07-29T10:18:14;101138.19;;;33.11;40.79
57859;BME280;49153;45.568;11.894;2022-07-29T10:20:58;101136.91;;;33.31;38.20
57859;BME280;49153;45.568;11.894;2022-07-29T10:24:06;101126.38;;;33.23;37.00
57859;BME280;49153;45.568;11.894;2022-07-29T10:27:15;101113.19;;;33.20;36.21
57859;BME280;49153;45.568;11.894;2022-07-29T10:44:01;101116.78;;;33.75;36.19
57859;BME280;49153;45.568;11.894;2022-07-29T10:46:27;101113.22;;;33.97;37.57
57859;BME280;49153;45.568;11.894;2022-07-29T10:51:55;101113.69;;;33.88;35.18
57859;BME280;49153;45.568;11.894;2022-07-29T10:59:44;101108.59;;;33.97;35.69
57859;BME280;49153;45.568;11.894;2022-07-29T11:05:20;101105.94;;;34.24;33.30
57859;BME280;49153;45.568;11.894;2022-07-29T11:08:18;101100.50;;;34.29;33.67
57859;BME280;49153;45.568;11.894;2022-07-29T11:10:45;101096.16;;;34.33;34.80
57859;BME280;49153;45.568;11.894;2022-07-29T11:13:11;101097.44;;;34.47;33.15
57859;BME280;49153;45.568;11.894;2022-07-29T11:15:56;101090.09;;;34.53;33.78
57859;BME280;49153;45.568;11.894;2022-07-29T11:18:23;101090.84;;;34.48;32.63
57859;BME280;49153;45.568;11.894;2022-07-29T11:20:49;101082.56;;;34.43;33.37
57859;BME280;49153;45.568;11.894;2022-07-29T11:23:27;101081.25;;;34.46;32.77
57859;BME280;49153;45.568;11.894;2022-07-29T11:26:19;101081.50;;;34.44;32.62
57859;BME280;49153;45.568;11.894;2022-07-29T11:29:13;101083.00;;;34.57;33.08
57859;BME280;49153;45.568;11.894;2022-07-29T11:31:43;101082.34;;;34.71;32.61
57859;BME280;49153;45.568;11.894;2022-07-29T11:34:19;101080.84;;;34.91;32.85
57859;BME280;49153;45.568;11.894;2022-07-29T11:39:38;101071.28;;;35.25;33.27
57859;BME280;49153;45.568;11.894;2022-07-29T11:47:25;101074.72;;;35.47;32.43
57859;BME280;49153;45.568;11.894;2022-07-29T11:49:51;101076.94;;;35.55;33.04
57859;BME280;49153;45.568;11.894;2022-07-29T11:52:18;101068.47;;;35.57;31.92
57859;BME280;49153;45.568;11.894;2022-07-29T11:54:44;101071.22;;;35.62;33.16
57859;BME280;49153;45.568;11.894;2022-07-29T11:57:12;101068.81;;;35.71;31.81
57859;BME280;49153;45.568;11.894;2022-07-29T11:59:42;101060.91;;;35.79;31.78
57859;BME280;49153;45.568;11.894;2022-07-29T12:02:09;101058.44;;;35.78;32.22
57859;BME280;49153;45.568;11.894;2022-07-29T12:07:29;101050.59;;;35.59;31.59
57859;BME280;49153;45.568;11.894;2022-07-29T12:09:54;101056.75;;;35.72;30.08
57859;BME280;49153;45.568;11.894;2022-07-29T12:12:20;101061.16;;;35.73;31.05
57859;BME280;49153;45.568;11.894;2022-07-29T12:14:46;101057.31;;;35.74;30.28
57859;BME280;49153;45.568;11.894;2022-07-29T12:17:32;101046.63;;;35.77;29.72
57859;BME280;49153;45.568;11.894;2022-07-29T12:20:00;101048.81;;;35.80;31.17
57859;BME280;49153;45.568;11.894;2022-07-29T12:22:27;101049.63;;;35.76;29.83
57859;BME280;49153;45.568;11.894;2022-07-29T12:24:54;101047.44;;;35.78;30.56
57859;BME280;49153;45.568;11.894;2022-07-29T12:27:19;101054.91;;;35.92;31.01
57859;BME280;49153;45.568;11.894;2022-07-29T12:29:58;101056.59;;;35.98;31.23
57859;BME280;49153;45.568;11.894;2022-07-29T12:32:51;101059.06;;;35.95;30.47
57859;BME280;49153;45.568;11.894;2022-07-29T12:35:18;101057.94;;;35.96;30.31
57859;BME280;49153;45.568;11.894;2022-07-29T12:37:45;101050.00;;;36.05;30.77
57859;BME280;49153;45.568;11.894;2022-07-29T12:40:14;101050.91;;;36.15;30.23
57859;BME280;49153;45.568;11.894;2022-07-29T12:43:14;101043.69;;;36.09;30.84
57859;BME280;49153;45.568;11.894;2022-07-29T12:45:44;101040.94;;;36.09;31.16
57859;BME280;49153;45.568;11.894;2022-07-29T12:48:10;101042.06;;;36.13;30.78
57859;BME280;49153;45.568;11.894;2022-07-29T12:50:51;101036.06;;;36.21;29.99
57859;BME280;49153;45.568;11.894;2022-07-29T12:53:17;101039.09;;;36.25;31.18
57859;BME280;49153;45.568;11.894;2022-07-29T12:55:48;101030.59;;;36.21;29.23
57859;BME280;49153;45.568;11.894;2022-07-29T12:58:33;101033.59;;;36.25;28.88
57859;BME280;49153;45.568;11.894;2022-07-29T13:01:01;101028.38;;;36.33;29.43
57859;BME280;49153;45.568;11.894;2022-07-29T13:03:27;101022.63;;;36.45;29.96
57859;BME280;49153;45.568;11.894;2022-07-29T13:05:53;101016.88;;;36.52;29.53
57859;BME280;49153;45.568;11.894;2022-07-29T13:08:18;101013.03;;;36.58;28.94
57859;BME280;49153;45.568;11.894;2022-07-29T13:10:45;101002.03;;;36.58;29.04
57859;BME280;49153;45.568;11.894;2022-07-29T13:13:13;101006.47;;;36.74;29.02
57859;BME280;49153;45.568;11.894;2022-07-29T13:15:40;101002.03;;;36.88;29.57
57859;BME280;49153;45.568;11.894;2022-07-29T13:18:33;101002.84;;;36.94;29.54
57859;BME280;49153;45.568;11.894;2022-07-29T13:21:15;100992.13;;;36.92;29.00
57859;BME280;49153;45.568;11.894;2022-07-29T13:23:41;100986.91;;;36.96;28.47
57859;BME280;49153;45.568;11.894;2022-07-29T13:26:11;100991.03;;;36.88;28.34
57859;BME280;49153;45.568;11.894;2022-07-29T13:28:37;100982.78;;;36.83;28.97
57859;BME280;49153;45.568;11.894;2022-07-29T13:31:03;100970.41;;;36.91;29.82
57859;BME280;49153;45.568;11.894;2022-07-29T13:33:29;100970.66;;;36.99;28.39
57859;BME280;49153;45.568;11.894;2022-07-29T13:35:55;100978.38;;;36.82;27.61
57859;BME280;49153;45.568;11.894;2022-07-29T13:38:20;100968.22;;;36.72;28.51
57859;BME280;49153;45.568;11.894;2022-07-29T13:40:46;100976.47;;;36.72;28.92
57859;BME280;49153;45.568;11.894;2022-07-29T13:43:12;100966.31;;;36.63;28.80
57859;BME280;49153;45.568;11.894;2022-07-29T13:45:38;100960.78;;;36.53;28.20
57859;BME280;49153;45.568;11.894;2022-07-29T13:48:03;100955.28;;;36.43;28.06
57859;BME280;49153;45.568;11.894;2022-07-29T13:50:30;100945.66;;;36.35;29.64
57859;BME280;49153;45.568;11.894;2022-07-29T13:52:55;100936.06;;;36.32;29.43
57859;BME280;49153;45.568;11.894;2022-07-29T13:55:20;100934.66;;;36.40;30.17
57859;BME280;49153;45.568;11.894;2022-07-29T13:57:46;100942.91;;;36.55;28.51
57859;BME280;49153;45.568;11.894;2022-07-29T14:00:13;100925.03;;;36.58;28.42
57859;BME280;49153;45.568;11.894;2022-07-29T14:02:39;100931.91;;;36.65;29.29
57859;BME280;49153;45.568;11.894;2022-07-29T14:05:06;100924.19;;;36.83;29.12
57859;BME280;49153;45.568;11.894;2022-07-29T14:07:31;100921.41;;;36.98;28.44
57859;BME280;49153;45.568;11.894;2022-07-29T14:09:57;100912.28;;;37.02;29.78
57859;BME280;49153;45.568;11.894;2022-07-29T14:12:22;100910.94;;;37.05;29.04
57859;BME280;49153;45.568;11.894;2022-07-29T14:14:48;100915.63;;;37.09;29.33
57859;BME280;49153;45.568;11.894;2022-07-29T14:17:14;100911.19;;;37.13;29.23
57859;BME280;49153;45.568;11.894;2022-07-29T14:19:40;100914.97;;;37.38;28.71
57859;BME280;49153;45.568;11.894;2022-07-29T14:22:07;100905.28;;;37.45;29.41
57859;BME280;49153;45.568;11.894;2022-07-29T14:24:33;100912.44;;;37.46;28.15
57859;BME280;49153;45.568;11.894;2022-07-29T14:26:59;100915.78;;;37.33;27.73
57859;BME280;49153;45.568;11.894;2022-07-29T14:29:24;100913.34;;;37.27;28.28
57859;BME280;49153;45.568;11.894;2022-07-29T14:31:50;100921.28;;;37.38;28.55
57859;BME280;49153;45.568;11.894;2022-07-29T14:34:15;100917.16;;;37.36;27.61
57859;BME280;49153;45.568;11.894;2022-07-29T14:36:41;100923.84;;;37.19;28.23
57859;BME280;49153;45.568;11.894;2022-07-29T14:39:07;100916.19;;;37.01;28.37
57859;BME280;49153;45.568;11.894;2022-07-29T14:41:32;100915.38;;;36.91;28.69
57859;BME280;49153;45.568;11.894;2022-07-29T14:43:58;100922.84;;;36.75;28.10